createdAt,value
2019-06-26T00:00:13.786Z,58.48
2019-06-26T00:02:42.441Z,58.60
2019-06-26T00:05:11.743Z,58.63
2019-06-26T00:07:41.087Z,58.68
2019-06-26T00:10:10.598Z,58.68
2019-06-26T00:12:40.119Z,58.73
2019-06-26T00:15:10.197Z,58.71
2019-06-26T00:17:39.857Z,58.67
2019-06-26T00:20:09.684Z,58.85
2019-06-26T00:22:39.044Z,58.75
2019-06-26T00:25:08.928Z,58.83
2019-06-26T00:27:38.335Z,58.81
2019-06-26T00:30:08.553Z,58.98
2019-06-26T00:32:37.919Z,58.91
2019-06-26T00:35:07.290Z,59.06
2019-06-26T00:37:36.910Z,59.27
2019-06-26T00:40:07.162Z,59.60
2019-06-26T00:42:36.525Z,59.64
2019-06-26T00:45:07.122Z,59.94
2019-06-26T00:47:36.734Z,60.17
2019-06-26T00:50:10.493Z,60.53
2019-06-26T00:52:40.147Z,60.92
2019-06-26T00:55:09.622Z,61.05
2019-06-26T00:57:38.975Z,61.24
2019-06-26T01:00:09.840Z,61.21
2019-06-26T01:02:40.596Z,61.83
2019-06-26T01:05:11.944Z,62.14
2019-06-26T01:07:41.600Z,62.43
2019-06-26T01:10:12.737Z,62.60
2019-06-26T01:12:42.160Z,62.39
2019-06-26T01:15:11.982Z,62.64
2019-06-26T01:17:41.327Z,62.76
2019-06-26T01:20:11.117Z,62.88
2019-06-26T01:22:40.734Z,62.65
2019-06-26T01:25:10.140Z,62.89
2019-06-26T01:27:39.725Z,62.79
2019-06-26T01:30:10.321Z,62.95
2019-06-26T01:32:39.915Z,62.94
2019-06-26T01:35:09.632Z,62.98
2019-06-26T01:37:39.225Z,63.30
2019-06-26T01:40:09.129Z,63.20
2019-06-26T01:42:38.563Z,63.26
2019-06-26T01:45:08.434Z,63.67
2019-06-26T01:47:37.952Z,63.69
2019-06-26T01:50:08.521Z,63.84
2019-06-26T01:52:37.870Z,64.09
2019-06-26T01:55:07.468Z,64.63
2019-06-26T01:57:37.781Z,64.81
2019-06-26T02:00:09.294Z,65.09
2019-06-26T02:02:38.740Z,65.26
2019-06-26T02:05:08.417Z,65.34
2019-06-26T02:07:37.946Z,65.59
2019-06-26T02:10:07.970Z,65.95
2019-06-26T02:12:38.675Z,66.25
2019-06-26T02:15:09.250Z,66.49
2019-06-26T02:17:38.589Z,66.71
2019-06-26T02:20:08.153Z,66.87
2019-06-26T02:22:37.499Z,67.24
2019-06-26T02:25:06.997Z,67.18
2019-06-26T02:27:36.417Z,67.20
2019-06-26T02:30:07.398Z,67.04
2019-06-26T02:32:36.838Z,66.83
2019-06-26T02:35:09.904Z,66.72
2019-06-26T02:37:38.631Z,66.87
2019-06-26T02:40:09.583Z,67.04
2019-06-26T02:42:39.201Z,67.25
2019-06-26T02:45:09.386Z,67.13
2019-06-26T02:47:39.024Z,67.30
2019-06-26T02:50:10.271Z,67.67
2019-06-26T02:52:39.706Z,67.75
2019-06-26T02:55:09.789Z,67.72
2019-06-26T02:57:39.163Z,67.71
2019-06-26T03:00:08.871Z,67.68
2019-06-26T03:02:38.394Z,67.63
2019-06-26T03:05:07.859Z,67.46
2019-06-26T03:07:37.430Z,67.37
2019-06-26T03:10:09.785Z,67.12
2019-06-26T03:12:39.362Z,66.95
2019-06-26T03:15:09.870Z,67.08
2019-06-26T03:17:54.259Z,67.14
2019-06-26T03:20:12.955Z,67.14
2019-06-26T03:22:42.317Z,67.29
2019-06-26T03:25:11.651Z,67.23
2019-06-26T03:27:40.991Z,67.15
2019-06-26T03:30:10.606Z,67.09
2019-06-26T03:32:39.952Z,67.15
2019-06-26T03:35:09.349Z,67.15
2019-06-26T03:37:38.688Z,67.10
2019-06-26T03:40:08.600Z,67.44
2019-06-26T03:42:38.172Z,67.25
2019-06-26T03:45:24.206Z,67.53
2019-06-26T03:47:39.431Z,67.47
2019-06-26T03:50:09.624Z,67.69
2019-06-26T03:52:39.079Z,67.64
2019-06-26T03:55:08.618Z,67.99
2019-06-26T03:57:37.987Z,68.22
2019-06-26T04:00:08.311Z,68.13
2019-06-26T04:02:37.640Z,68.33
2019-06-26T04:05:07.217Z,68.38
2019-06-26T04:07:37.624Z,68.70
2019-06-26T04:10:09.180Z,68.99
2019-06-26T04:12:38.764Z,68.96
2019-06-26T04:15:08.437Z,69.12
2019-06-26T04:17:37.993Z,69.21
2019-06-26T04:20:08.175Z,69.26
2019-06-26T04:22:37.516Z,69.42
2019-06-26T04:25:08.783Z,69.31
2019-06-26T04:27:38.111Z,69.37
2019-06-26T04:30:10.436Z,69.44
2019-06-26T04:32:40.044Z,69.37
2019-06-26T04:35:09.894Z,69.25
2019-06-26T04:37:39.303Z,69.25
2019-06-26T04:40:09.983Z,69.31
2019-06-26T04:42:39.680Z,69.24
2019-06-26T04:45:09.504Z,69.14
2019-06-26T04:47:39.110Z,68.98
2019-06-26T04:50:08.751Z,68.80
2019-06-26T04:52:38.128Z,68.69
2019-06-26T04:55:08.327Z,68.25
2019-06-26T04:57:37.702Z,67.85
2019-06-26T05:00:09.556Z,67.58
2019-06-26T05:02:38.975Z,67.29
2019-06-26T05:05:09.091Z,66.63
2019-06-26T05:07:38.461Z,66.57
2019-06-26T05:10:10.821Z,66.12
2019-06-26T05:12:40.618Z,66.00
2019-06-26T05:15:10.659Z,65.94
2019-06-26T05:17:40.010Z,66.12
2019-06-26T05:20:09.729Z,66.31
2019-06-26T05:22:39.211Z,66.12
2019-06-26T05:25:09.941Z,66.26
2019-06-26T05:27:39.241Z,66.33
2019-06-26T05:30:11.675Z,66.37
2019-06-26T05:32:40.994Z,66.52
2019-06-26T05:35:10.921Z,66.54
2019-06-26T05:37:40.493Z,66.45
2019-06-26T05:40:13.537Z,66.29
2019-06-26T05:42:42.902Z,66.04
2019-06-26T05:45:14.380Z,66.00
2019-06-26T05:47:44.678Z,66.00
2019-06-26T05:50:14.849Z,66.21
2019-06-26T05:52:44.229Z,66.03
2019-06-26T05:55:14.877Z,66.33
2019-06-26T05:57:48.357Z,66.37
2019-06-26T06:00:16.915Z,66.56
2019-06-26T06:02:46.303Z,66.66
2019-06-26T06:05:16.141Z,66.70
2019-06-26T06:07:45.699Z,66.70
2019-06-26T06:10:15.376Z,66.81
2019-06-26T06:12:44.788Z,67.08
2019-06-26T06:15:15.193Z,66.94
2019-06-26T06:17:44.538Z,67.13
2019-06-26T06:20:14.447Z,67.13
2019-06-26T06:22:43.786Z,67.06
2019-06-26T06:25:14.122Z,67.04
2019-06-26T06:27:43.455Z,66.82
2019-06-26T06:30:13.489Z,66.91
2019-06-26T06:32:42.778Z,66.99
2019-06-26T06:35:12.278Z,66.95
2019-06-26T06:37:41.616Z,67.00
2019-06-26T06:40:11.368Z,67.07
2019-06-26T06:42:40.708Z,67.04
2019-06-26T06:45:10.233Z,67.13
2019-06-26T06:47:39.596Z,67.10
2019-06-26T06:50:09.381Z,66.99
2019-06-26T06:52:38.971Z,67.34
2019-06-26T06:55:08.471Z,67.11
2019-06-26T06:57:37.836Z,67.14
2019-06-26T07:00:08.279Z,66.96
2019-06-26T07:02:37.867Z,66.88
2019-06-26T07:05:07.866Z,66.81
2019-06-26T07:07:37.278Z,66.59
2019-06-26T07:10:09.549Z,66.35
2019-06-26T07:12:39.160Z,66.18
2019-06-26T07:15:09.456Z,65.78
2019-06-26T07:17:38.801Z,65.54
2019-06-26T07:20:08.285Z,65.62
2019-06-26T07:22:37.924Z,65.64
2019-06-26T07:25:07.745Z,65.51
2019-06-26T07:27:37.083Z,65.55
2019-06-26T07:30:07.325Z,65.35
2019-06-26T07:32:36.665Z,65.41
2019-06-26T07:35:06.666Z,65.49
2019-06-26T07:37:37.043Z,65.40
2019-06-26T07:40:07.518Z,65.60
2019-06-26T07:42:36.825Z,65.35
2019-06-26T07:45:06.503Z,65.19
2019-06-26T07:47:43.155Z,65.14
2019-06-26T07:50:08.066Z,65.00
2019-06-26T07:52:37.610Z,65.02
2019-06-26T07:55:11.817Z,65.22
2019-06-26T07:57:39.588Z,64.92
2019-06-26T08:00:09.541Z,65.18
2019-06-26T08:02:38.872Z,64.94
2019-06-26T08:05:09.086Z,64.81
2019-06-26T08:07:39.695Z,64.89
2019-06-26T08:10:09.823Z,64.74
2019-06-26T08:12:39.186Z,64.67
2019-06-26T08:15:08.846Z,64.64
2019-06-26T08:17:38.235Z,64.52
2019-06-26T08:20:08.029Z,64.49
2019-06-26T08:22:37.368Z,64.35
2019-06-26T08:25:07.883Z,64.37
2019-06-26T08:27:38.022Z,64.24
2019-06-26T08:30:10.605Z,64.22
2019-06-26T08:32:39.971Z,64.08
2019-06-26T08:35:09.594Z,64.49
2019-06-26T08:37:39.287Z,64.02
2019-06-26T08:40:10.004Z,63.89
2019-06-26T08:42:39.374Z,63.94
2019-06-26T08:45:10.300Z,63.72
2019-06-26T08:47:39.917Z,63.47
2019-06-26T08:50:10.468Z,63.35
2019-06-26T08:52:39.886Z,63.18
2019-06-26T08:55:10.327Z,62.94
2019-06-26T08:57:40.020Z,62.82
2019-06-26T09:00:11.538Z,62.79
2019-06-26T09:02:41.208Z,63.15
2019-06-26T09:05:11.694Z,63.22
2019-06-26T09:07:41.047Z,62.63
2019-06-26T09:10:10.764Z,62.67
2019-06-26T09:12:40.101Z,62.26
2019-06-26T09:15:09.670Z,62.32
2019-06-26T09:17:39.025Z,62.41
2019-06-26T09:20:08.879Z,62.04
2019-06-26T09:22:38.252Z,62.12
2019-06-26T09:25:21.063Z,61.63
2019-06-26T09:27:40.136Z,62.33
2019-06-26T09:30:09.911Z,61.97
2019-06-26T09:32:39.640Z,61.66
2019-06-26T09:35:09.292Z,61.64
2019-06-26T09:37:38.690Z,61.42
2019-06-26T09:40:08.811Z,61.16
2019-06-26T09:42:38.522Z,61.36
2019-06-26T09:45:08.170Z,61.21
2019-06-26T09:47:38.630Z,61.16
2019-06-26T09:50:09.283Z,60.81
2019-06-26T09:52:38.991Z,60.46
2019-06-26T09:55:09.645Z,60.15
2019-06-26T09:57:39.017Z,60.12
2019-06-26T10:00:11.917Z,60.06
2019-06-26T10:02:41.351Z,60.15
2019-06-26T10:05:13.479Z,59.92
2019-06-26T10:07:42.839Z,59.78
2019-06-26T10:10:12.633Z,59.58
2019-06-26T10:12:42.001Z,57.83
2019-06-26T10:15:11.978Z,59.67
2019-06-26T10:17:41.631Z,59.32
2019-06-26T10:20:11.015Z,59.31
2019-06-26T10:22:40.461Z,59.54
2019-06-26T10:25:11.413Z,59.33
2019-06-26T10:27:41.454Z,59.27
2019-06-26T10:30:11.469Z,59.27
2019-06-26T10:32:41.246Z,58.92
2019-06-26T10:35:10.847Z,58.07
2019-06-26T10:37:40.562Z,57.97
2019-06-26T10:40:10.043Z,58.20
2019-06-26T10:42:39.628Z,57.91
2019-06-26T10:45:09.325Z,58.00
2019-06-26T10:47:39.937Z,57.62
2019-06-26T10:50:10.162Z,57.73
2019-06-26T10:52:39.653Z,57.59
2019-06-26T10:55:09.606Z,57.15
2019-06-26T10:57:38.978Z,57.44
2019-06-26T11:00:12.311Z,57.11
2019-06-26T11:02:42.262Z,56.77
2019-06-26T11:05:12.075Z,56.42
2019-06-26T11:07:41.427Z,56.43
2019-06-26T11:10:11.522Z,55.74
2019-06-26T11:12:40.894Z,55.16
2019-06-26T11:15:12.639Z,54.33
2019-06-26T11:17:42.539Z,54.03
2019-06-26T11:20:15.342Z,53.45
2019-06-26T11:22:45.167Z,53.45
2019-06-26T11:25:14.850Z,52.73
2019-06-26T11:27:44.234Z,52.63
2019-06-26T11:30:14.638Z,52.16
2019-06-26T11:32:44.012Z,51.54
2019-06-26T11:35:15.383Z,51.38
2019-06-26T11:37:45.229Z,50.49
2019-06-26T11:40:15.288Z,50.96
2019-06-26T11:42:44.651Z,50.52
2019-06-26T11:45:14.469Z,49.91
2019-06-26T11:47:46.026Z,48.99
2019-06-26T11:50:17.123Z,48.84
2019-06-26T11:52:46.485Z,48.91
2019-06-26T11:55:16.882Z,48.35
2019-06-26T11:57:46.431Z,47.97
2019-06-26T12:00:17.794Z,47.56
2019-06-26T12:02:47.166Z,46.00
2019-06-26T12:05:16.774Z,45.39
2019-06-26T12:07:46.156Z,46.47
2019-06-26T12:10:16.144Z,45.68
2019-06-26T12:12:45.775Z,45.62
2019-06-26T12:15:16.057Z,45.26
2019-06-26T12:17:45.656Z,44.92
2019-06-26T12:20:19.017Z,44.29
2019-06-26T12:22:46.512Z,43.89
2019-06-26T12:25:15.955Z,43.63
2019-06-26T12:27:45.301Z,42.62
2019-06-26T12:30:14.721Z,42.66
2019-06-26T12:33:01.477Z,41.33
2019-06-26T12:35:15.440Z,42.28
2019-06-26T12:37:44.774Z,42.09
2019-06-26T12:40:14.552Z,41.92
2019-06-26T12:42:43.885Z,41.73
2019-06-26T12:45:13.324Z,41.22
2019-06-26T12:47:42.772Z,41.02
2019-06-26T12:50:14.703Z,40.59
2019-06-26T12:52:44.048Z,40.06
2019-06-26T12:55:13.801Z,38.81
2019-06-26T12:57:43.173Z,40.19
2019-06-26T13:00:13.326Z,39.63
2019-06-26T13:02:42.731Z,39.84
2019-06-26T13:05:12.459Z,38.09
2019-06-26T13:07:41.790Z,39.19
2019-06-26T13:10:12.170Z,38.76
2019-06-26T13:12:41.503Z,38.00
2019-06-26T13:15:11.228Z,38.12
2019-06-26T13:17:40.576Z,38.46
2019-06-26T13:20:10.769Z,37.87
2019-06-26T13:22:40.167Z,37.07
2019-06-26T13:25:10.652Z,36.42
2019-06-26T13:27:40.124Z,35.60
2019-06-26T13:30:09.916Z,35.31
2019-06-26T13:32:40.091Z,35.98
2019-06-26T13:35:09.566Z,36.22
2019-06-26T13:37:38.937Z,34.20
2019-06-26T13:40:08.507Z,34.70
2019-06-26T13:42:37.837Z,33.09
2019-06-26T13:45:07.842Z,34.55
2019-06-26T13:47:37.168Z,34.12
2019-06-26T13:50:07.732Z,34.15
2019-06-26T13:52:37.076Z,32.38
2019-06-26T13:55:07.491Z,33.36
2019-06-26T13:57:36.822Z,33.01
2019-06-26T14:00:07.144Z,33.02
2019-06-26T14:02:36.471Z,33.08
2019-06-26T14:05:09.584Z,32.94
2019-06-26T14:07:39.214Z,32.86
2019-06-26T14:10:09.767Z,32.32
2019-06-26T14:12:39.152Z,32.18
2019-06-26T14:15:09.369Z,31.72
2019-06-26T14:17:38.969Z,31.85
2019-06-26T14:20:09.577Z,30.54
2019-06-26T14:22:39.328Z,30.20
2019-06-26T14:25:09.304Z,29.64
2019-06-26T14:27:39.663Z,30.06
2019-06-26T14:30:09.368Z,30.35
2019-06-26T14:32:38.973Z,30.02
2019-06-26T14:35:08.550Z,30.47
2019-06-26T14:37:37.890Z,29.12
2019-06-26T14:40:08.927Z,29.75
2019-06-26T14:42:38.263Z,29.28
2019-06-26T14:45:08.520Z,29.13
2019-06-26T14:47:37.884Z,28.98
2019-06-26T14:50:07.813Z,29.38
2019-06-26T14:52:37.415Z,29.79
2019-06-26T14:55:09.647Z,29.28
2019-06-26T14:57:38.977Z,29.07
2019-06-26T15:00:09.336Z,28.92
2019-06-26T15:02:38.651Z,29.27
2019-06-26T15:05:09.380Z,28.81
2019-06-26T15:07:38.979Z,28.64
2019-06-26T15:10:10.024Z,28.52
2019-06-26T15:12:40.354Z,29.23
2019-06-26T15:15:11.239Z,28.60
2019-06-26T15:17:40.594Z,29.34
2019-06-26T15:20:10.193Z,29.82
2019-06-26T15:22:39.549Z,29.54
2019-06-26T15:25:08.986Z,29.55
2019-06-26T15:27:38.321Z,29.75
2019-06-26T15:30:08.347Z,28.92
2019-06-26T15:32:37.923Z,29.60
2019-06-26T15:35:08.573Z,30.19
2019-06-26T15:37:38.345Z,30.11
2019-06-26T15:40:08.547Z,30.25
2019-06-26T15:42:38.206Z,30.50
2019-06-26T15:45:07.986Z,30.43
2019-06-26T15:47:37.348Z,31.19
2019-06-26T15:50:11.126Z,30.90
2019-06-26T15:52:41.485Z,31.38
2019-06-26T15:55:10.923Z,31.22
2019-06-26T15:57:40.294Z,31.00
2019-06-26T16:00:09.887Z,31.47
2019-06-26T16:02:39.262Z,31.48
2019-06-26T16:05:08.970Z,31.86
2019-06-26T16:07:38.318Z,31.57
2019-06-26T16:10:08.373Z,31.69
2019-06-26T16:12:37.700Z,31.80
2019-06-26T16:15:07.466Z,31.56
2019-06-26T16:17:50.543Z,32.19
2019-06-26T16:20:20.441Z,32.45
2019-06-26T16:22:49.773Z,32.58
2019-06-26T16:25:19.136Z,33.21
2019-06-26T16:28:04.301Z,33.14
2019-06-26T16:30:19.625Z,33.41
2019-06-26T16:32:50.315Z,33.53
2019-06-26T16:35:20.678Z,34.23
2019-06-26T16:37:50.245Z,34.97
2019-06-26T16:40:20.819Z,35.86
2019-06-26T16:42:50.161Z,36.11
2019-06-26T16:45:21.055Z,35.53
2019-06-26T16:47:50.424Z,36.07
2019-06-26T16:50:19.845Z,36.51
2019-06-26T16:52:50.230Z,36.70
2019-06-26T16:55:19.912Z,38.10
2019-06-26T16:57:49.515Z,38.25
2019-06-26T17:00:19.012Z,38.52
2019-06-26T17:02:48.381Z,39.42
2019-06-26T17:05:17.820Z,39.66
2019-06-26T17:07:47.171Z,40.02
2019-06-26T17:10:17.658Z,40.45
2019-06-26T17:12:47.019Z,40.56
2019-06-26T17:15:17.098Z,40.66
2019-06-26T17:17:46.707Z,40.43
2019-06-26T17:20:16.900Z,40.79
2019-06-26T17:22:46.243Z,41.08
2019-06-26T17:25:15.716Z,41.62
2019-06-26T17:27:45.062Z,41.91
2019-06-26T17:30:14.662Z,41.90
2019-06-26T17:32:44.102Z,42.28
2019-06-26T17:35:13.673Z,42.50
2019-06-26T17:37:43.298Z,42.44
2019-06-26T17:40:13.122Z,42.45
2019-06-26T17:42:42.459Z,42.70
2019-06-26T17:45:12.343Z,42.99
2019-06-26T17:47:41.699Z,42.86
2019-06-26T17:50:11.522Z,43.06
2019-06-26T17:52:41.118Z,43.28
2019-06-26T17:55:11.657Z,43.43
2019-06-26T17:57:41.016Z,43.44
2019-06-26T18:00:12.064Z,43.55
2019-06-26T18:02:41.465Z,43.60
2019-06-26T18:05:12.478Z,43.68
2019-06-26T18:07:41.803Z,43.63
2019-06-26T18:10:11.582Z,43.48
2019-06-26T18:12:40.912Z,43.35
2019-06-26T18:15:11.293Z,43.47
2019-06-26T18:17:40.614Z,43.62
2019-06-26T18:20:10.017Z,43.80
2019-06-26T18:22:39.333Z,43.89
2019-06-26T18:25:09.108Z,43.91
2019-06-26T18:27:38.713Z,43.99
2019-06-26T18:30:08.987Z,44.14
2019-06-26T18:32:38.319Z,44.42
2019-06-26T18:35:07.986Z,44.57
2019-06-26T18:37:37.309Z,44.94
2019-06-26T18:40:08.292Z,44.77
2019-06-26T18:42:37.871Z,44.88
2019-06-26T18:45:07.642Z,45.09
2019-06-26T18:47:37.010Z,45.55
2019-06-26T18:50:08.446Z,45.80
2019-06-26T18:52:37.801Z,45.79
2019-06-26T18:55:10.186Z,46.23
2019-06-26T18:57:39.541Z,46.23
2019-06-26T19:00:09.328Z,46.26
2019-06-26T19:02:38.732Z,46.26
2019-06-26T19:05:08.831Z,47.23
2019-06-26T19:07:38.153Z,47.23
2019-06-26T19:10:08.910Z,47.22
2019-06-26T19:12:38.597Z,47.22
2019-06-26T19:15:08.264Z,47.40
2019-06-26T19:17:37.826Z,47.47
2019-06-26T19:20:08.991Z,47.42
2019-06-26T19:22:38.321Z,46.98
2019-06-26T19:25:10.367Z,46.99
2019-06-26T19:27:39.971Z,46.87
2019-06-26T19:30:11.496Z,46.65
2019-06-26T19:32:40.811Z,46.83
2019-06-26T19:35:18.967Z,46.48
2019-06-26T19:37:41.981Z,46.26
2019-06-26T19:40:12.281Z,46.26
2019-06-26T19:42:41.644Z,46.30
2019-06-26T19:45:11.692Z,46.35
2019-06-26T19:47:41.061Z,46.32
2019-06-26T19:50:11.219Z,46.12
2019-06-26T19:52:40.901Z,46.27
2019-06-26T19:55:10.604Z,46.37
2019-06-26T19:57:39.942Z,46.57
2019-06-26T20:00:10.320Z,46.88
2019-06-26T20:02:39.776Z,47.07
2019-06-26T20:05:10.879Z,46.90
2019-06-26T20:07:40.201Z,46.86
2019-06-26T20:10:10.368Z,46.74
2019-06-26T20:12:39.963Z,46.77
2019-06-26T20:15:09.733Z,46.51
2019-06-26T20:17:39.063Z,46.76
2019-06-26T20:20:08.958Z,46.73
2019-06-26T20:22:38.479Z,46.89
2019-06-26T20:25:08.943Z,46.94
2019-06-26T20:27:39.803Z,47.06
2019-06-26T20:30:10.331Z,47.20
2019-06-26T20:32:41.043Z,47.26
2019-06-26T20:35:10.609Z,47.30
2019-06-26T20:37:40.303Z,47.64
2019-06-26T20:40:11.031Z,47.74
2019-06-26T20:42:40.518Z,47.92
2019-06-26T20:45:10.689Z,48.30
2019-06-26T20:47:40.075Z,48.55
2019-06-26T20:50:09.610Z,48.75
2019-06-26T20:52:39.206Z,49.08
2019-06-26T20:55:08.789Z,49.33
2019-06-26T20:57:38.122Z,49.57
2019-06-26T21:00:08.867Z,49.77
2019-06-26T21:02:39.863Z,49.95
2019-06-26T21:05:10.501Z,50.20
2019-06-26T21:07:40.433Z,50.29
2019-06-26T21:10:10.535Z,50.60
2019-06-26T21:12:40.214Z,50.91
2019-06-26T21:15:10.380Z,51.22
2019-06-26T21:17:39.750Z,51.26
2019-06-26T21:20:10.958Z,51.28
2019-06-26T21:22:40.302Z,51.48
2019-06-26T21:25:18.168Z,51.56
2019-06-26T21:27:41.293Z,51.83
2019-06-26T21:30:11.014Z,52.13
2019-06-26T21:32:40.854Z,52.20
2019-06-26T21:35:10.549Z,52.38
2019-06-26T21:37:40.238Z,52.79
2019-06-26T21:40:09.974Z,53.12
2019-06-26T21:42:39.323Z,53.21
2019-06-26T21:45:13.286Z,53.54
2019-06-26T21:47:42.641Z,53.71
2019-06-26T21:50:13.754Z,53.79
2019-06-26T21:52:43.228Z,54.02
2019-06-26T21:55:12.838Z,54.03
2019-06-26T21:57:59.995Z,54.21
2019-06-26T22:00:47.965Z,54.29
2019-06-26T22:03:35.420Z,54.45
2019-06-26T22:06:12.235Z,54.60
2019-06-26T22:08:43.523Z,54.69
2019-06-26T22:11:14.205Z,54.82
2019-06-26T22:13:43.989Z,54.96
2019-06-26T22:16:13.394Z,55.18
2019-06-26T22:18:42.952Z,55.26
2019-06-26T22:21:12.602Z,55.29
2019-06-26T22:23:42.197Z,55.34
2019-06-26T22:26:14.111Z,55.26
2019-06-26T22:28:42.590Z,55.09
2019-06-26T22:31:11.918Z,55.34
2019-06-26T22:33:41.662Z,55.73
2019-06-26T22:36:11.751Z,55.52
2019-06-26T22:38:41.118Z,55.50
2019-06-26T22:41:10.480Z,55.57
2019-06-26T22:43:40.043Z,55.56
2019-06-26T22:46:09.454Z,55.45
2019-06-26T22:48:38.989Z,55.44
2019-06-26T22:51:08.751Z,55.80
2019-06-26T22:53:38.086Z,55.99
2019-06-26T22:56:08.365Z,56.03
2019-06-26T22:58:37.883Z,56.19
2019-06-26T23:01:07.220Z,56.34
2019-06-26T23:03:36.690Z,56.35
2019-06-26T23:06:06.397Z,56.22
2019-06-26T23:08:35.747Z,56.26
2019-06-26T23:11:05.196Z,56.39
2019-06-26T23:13:34.540Z,56.74
2019-06-26T23:16:03.923Z,56.92
2019-06-26T23:18:33.497Z,57.28
2019-06-26T23:21:03.131Z,57.53
2019-06-26T23:23:32.471Z,57.56
2019-06-26T23:26:01.917Z,57.82
2019-06-26T23:28:31.242Z,57.75
2019-06-26T23:31:00.588Z,57.94
2019-06-26T23:33:30.195Z,57.97
2019-06-26T23:35:59.570Z,58.05
2019-06-26T23:38:28.904Z,58.36
2019-06-26T23:40:58.283Z,58.63
2019-06-26T23:43:27.861Z,58.85
2019-06-26T23:45:57.493Z,59.18
2019-06-26T23:48:27.797Z,59.30
2019-06-26T23:50:57.416Z,59.33
2019-06-26T23:53:26.758Z,59.53
2019-06-26T23:55:56.123Z,59.91
2019-06-26T23:58:25.493Z,59.86
